Time;durP1;ratioP1;P1;durP2;ratioP2;P2;SDS_P1;SDS_P2;PMS_P1;PMS_P2;Temp;Humidity;BMP_temperature;BMP_pressure;BME280_temperature;BME280_humidity;BME280_pressure;Samples;Min_cycle;Max_cycle;Signal;HPM_P1;HPM_P2
2022/10/10 00:02:12;;;;;;;0.63;0.40;;;13.50;93.50;;;;;;5035704;28;20099;-80
2022/10/10 00:08:00;;;;;;;0.08;0.08;;;13.40;93.90;;;;;;5037200;28;20083;-82
2022/10/10 00:10:35;;;;;;;0.60;0.52;;;13.40;94.20;;;;;;5036841;28;20033;-79
2022/10/10 00:13:11;;;;;;;0.88;0.60;;;13.40;94.20;;;;;;5019581;28;20116;-79
2022/10/10 00:18:59;;;;;;;0.55;0.50;;;13.30;94.80;;;;;;5028887;28;19916;-79
2022/10/10 00:21:34;;;;;;;0.28;0.17;;;13.20;94.40;;;;;;5035842;28;20066;-80
2022/10/10 00:24:10;;;;;;;0.13;0.10;;;13.20;94.70;;;;;;5055602;28;20091;-80
2022/10/10 00:26:35;;;;;;;0.43;0.30;;;13.30;94.50;;;;;;5038791;28;20483;-79
2022/10/10 00:29:17;;;;;;;0.17;0.17;;;13.30;94.20;;;;;;5038938;28;20029;-80
2022/10/10 00:31:51;;;;;;;0.17;0.10;;;13.50;93.70;;;;;;5055402;28;20370;-79
2022/10/10 00:37:39;;;;;;;1.05;0.70;;;13.70;92.50;;;;;;5056867;28;20032;-80
2022/10/10 00:41:05;;;;;;;0.47;0.38;;;13.80;91.60;;;;;;5053593;28;20352;-80
2022/10/10 00:48:12;;;;;;;0.30;0.20;;;14.10;91.00;;;;;;5056788;28;20020;-81
2022/10/10 00:51:08;;;;;;;0.40;0.40;;;14.20;91.10;;;;;;5071977;28;20116;-79
2022/10/10 00:53:58;;;;;;;0.80;0.60;;;14.40;91.20;;;;;;5056343;28;20082;-80
2022/10/10 00:59:56;;;;;;;1.20;0.57;;;14.50;90.40;;;;;;5056499;28;20162;-79
2022/10/10 01:02:31;;;;;;;1.15;0.55;;;14.60;90.60;;;;;;5056102;28;20090;-79
2022/10/10 01:08:28;;;;;;;0.45;0.45;;;14.50;91.20;;;;;;5056532;28;20067;-79
2022/10/10 01:11:40;;;;;;;0.27;0.20;;;14.40;91.00;;;;;;5059992;28;20352;-79
2022/10/10 01:17:40;;;;;;;0.52;0.40;;;14.30;91.20;;;;;;5060348;28;20028;-79
2022/10/10 01:20:30;;;;;;;1.30;0.32;;;14.20;90.60;;;;;;5075493;28;20079;-79
2022/10/10 01:23:43;;;;;;;0.38;0.28;;;14.20;90.60;;;;;;5059990;28;20155;-79
2022/10/10 01:30:22;;;;;;;1.98;0.52;;;14.10;91.10;;;;;;5060047;28;20065;-82
2022/10/10 01:33:09;;;;;;;0.30;0.28;;;14.00;90.70;;;;;;5001765;28;20025;-79
2022/10/10 01:39:08;;;;;;;0.45;0.38;;;14.00;90.90;;;;;;5018193;28;20020;-81
2022/10/10 01:42:00;;;;;;;0.60;0.43;;;13.90;90.90;;;;;;5017784;28;20049;-79
2022/10/10 01:47:49;;;;;;;0.30;0.20;;;13.90;90.70;;;;;;5018339;28;20033;-80
2022/10/10 01:50:26;;;;;;;0.35;0.32;;;14.00;90.90;;;;;;5002269;28;20018;-80
2022/10/10 01:53:28;;;;;;;0.28;0.10;;;14.00;90.70;;;;;;5018834;28;20426;-79
2022/10/10 02:00:16;;;;;;;0.32;0.28;;;14.00;90.30;;;;;;5019469;28;20028;-80
2022/10/10 02:03:42;;;;;;;0.17;0.10;;;14.00;90.20;;;;;;5018369;28;20125;-80
2022/10/10 02:10:39;;;;;;;1.45;0.63;;;14.00;90.70;;;;;;5019677;28;20040;-79
2022/10/10 02:14:05;;;;;;;1.23;0.85;;;14.00;90.70;;;;;;5019167;28;20018;-79
2022/10/10 02:16:36;;;;;;;1.42;0.43;;;14.10;90.90;;;;;;5018098;28;20091;-79
2022/10/10 02:19:16;;;;;;;0.05;0.05;;;14.10;91.10;;;;;;5017687;28;20030;-79
2022/10/10 02:21:53;;;;;;;0.38;0.30;;;14.10;91.40;;;;;;5000645;28;20353;-79
2022/10/10 02:27:52;;;;;;;0.45;0.40;;;14.10;91.00;;;;;;5019305;28;20020;-79
2022/10/10 02:30:27;;;;;;;0.10;0.10;;;14.10;90.70;;;;;;5018806;28;20028;-79
2022/10/10 02:33:07;;;;;;;0.77;0.40;;;14.10;91.20;;;;;;5001624;28;20099;-79
2022/10/10 02:35:52;;;;;;;0.28;0.25;;;14.10;91.50;;;;;;5017889;28;20108;-79
2022/10/10 02:38:29;;;;;;;0.20;0.10;;;14.20;91.70;;;;;;5001451;28;20410;-79
2022/10/10 02:41:07;;;;;;;0.10;0.10;;;14.10;91.80;;;;;;5011385;28;20161;-80
2022/10/10 02:43:43;;;;;;;0.50;0.28;;;14.10;91.80;;;;;;5018718;28;20029;-79
2022/10/10 02:49:40;;;;;;;0.03;0.03;;;13.90;93.20;;;;;;5018878;28;20024;-80
2022/10/10 02:52:16;;;;;;;0.35;0.35;;;13.70;94.00;;;;;;5018575;28;20114;-81
2022/10/10 02:54:51;;;;;;;4.93;0.65;;;13.70;94.60;;;;;;5018453;28;20318;-80
2022/10/10 02:57:17;;;;;;;0.20;0.20;;;13.70;94.80;;;;;;5017293;28;20399;-81
2022/10/10 02:59:58;;;;;;;0.35;0.35;;;13.70;94.50;;;;;;5033844;28;20356;-81
2022/10/10 03:02:33;;;;;;;0.52;0.52;;;13.70;94.60;;;;;;5017129;28;20084;-81
2022/10/10 03:08:32;;;;;;;0.10;0.10;;;13.70;93.70;;;;;;5018431;28;20060;-81
2022/10/10 03:11:11;;;;;;;1.02;0.52;;;13.70;94.50;;;;;;5017335;28;20117;-79
2022/10/10 03:13:45;;;;;;;0.20;0.17;;;13.70;94.40;;;;;;5018119;28;20084;-79
2022/10/10 03:22:55;;;;;;;5.53;1.08;;;13.80;94.90;;;;;;5018378;28;20068;-79
2022/10/10 03:28:43;;;;;;;0.70;0.57;;;13.80;94.50;;;;;;5018129;28;20111;-82
2022/10/10 03:31:24;;;;;;;0.25;0.25;;;13.70;94.10;;;;;;5033214;28;20066;-79
2022/10/10 03:33:59;;;;;;;1.17;0.88;;;13.70;94.30;;;;;;5033058;28;20026;-82
2022/10/10 03:39:47;;;;;;;0.40;0.32;;;13.60;94.40;;;;;;5018960;28;20039;-79
2022/10/10 03:42:22;;;;;;;0.20;0.20;;;13.50;94.90;;;;;;5017465;28;20042;-79
2022/10/10 03:48:10;;;;;;;0.90;0.75;;;13.60;94.80;;;;;;5017706;28;20029;-79
2022/10/10 03:50:45;;;;;;;0.38;0.35;;;13.60;95.00;;;;;;5032700;28;20018;-78
2022/10/10 03:53:19;;;;;;;0.47;0.47;;;13.60;92.50;;;;;;5017583;28;20026;-80
2022/10/10 03:59:22;;;;;;;0.30;0.30;;;13.90;93.10;;;;;;5017656;28;20028;-79
2022/10/10 04:01:57;;;;;;;0.30;0.30;;;14.10;93.60;;;;;;5016284;28;20488;-80
2022/10/10 04:04:32;;;;;;;0.43;0.30;;;14.30;93.10;;;;;;5016077;28;20022;-80
2022/10/10 04:06:58;;;;;;;0.55;0.50;;;14.40;93.50;;;;;;4999802;28;20026;-80
2022/10/10 04:12:55;;;;;;;0.90;0.52;;;14.30;93.70;;;;;;5017275;28;20069;-80
2022/10/10 04:15:31;;;;;;;1.10;1.00;;;14.30;93.40;;;;;;5017215;28;20021;-80
2022/10/10 04:17:58;;;;;;;0.45;0.40;;;14.40;92.80;;;;;;5017122;28;20042;-79
2022/10/10 04:20:33;;;;;;;0.30;0.20;;;14.50;92.50;;;;;;4999451;28;20030;-80
2022/10/10 04:23:08;;;;;;;0.52;0.30;;;14.50;92.60;;;;;;5015893;28;20042;-80
2022/10/10 04:25:43;;;;;;;0.55;0.43;;;14.60;92.10;;;;;;5016759;28;20029;-81
2022/10/10 04:28:21;;;;;;;0.30;0.20;;;14.50;92.40;;;;;;5016089;28;20026;-80
2022/10/10 04:30:56;;;;;;;0.93;0.60;;;14.60;91.20;;;;;;4999543;28;20283;-80
2022/10/10 04:33:31;;;;;;;0.15;0.15;;;14.80;90.80;;;;;;5015616;28;20026;-79
2022/10/10 04:35:57;;;;;;;0.40;0.40;;;14.90;90.10;;;;;;4999339;28;20025;-80
2022/10/10 04:38:32;;;;;;;0.52;0.52;;;15.00;91.10;;;;;;5032181;28;20303;-80
2022/10/10 04:41:07;;;;;;;0.43;0.20;;;15.00;90.30;;;;;;5027653;28;20069;-80
2022/10/10 04:43:42;;;;;;;0.15;0.15;;;14.90;91.00;;;;;;5051476;28;20040;-79
2022/10/10 04:46:08;;;;;;;0.32;0.20;;;14.90;91.30;;;;;;5036362;28;20028;-80
2022/10/10 04:48:52;;;;;;;0.30;0.22;;;14.90;91.20;;;;;;5018939;28;20026;-79
2022/10/10 04:51:27;;;;;;;2.55;1.33;;;14.90;91.40;;;;;;5036331;28;20425;-80
2022/10/10 04:54:03;;;;;;;0.20;0.20;;;14.90;91.10;;;;;;5035424;28;20025;-79
2022/10/10 04:56:29;;;;;;;0.25;0.17;;;14.90;90.50;;;;;;5036445;28;20406;-81
2022/10/10 04:59:13;;;;;;;0.22;0.22;;;14.90;90.80;;;;;;5035283;28;20053;-82
2022/10/10 05:01:47;;;;;;;2.53;0.90;;;15.00;90.30;;;;;;5036302;28;20413;-80
2022/10/10 05:04:22;;;;;;;0.13;0.13;;;15.10;89.10;;;;;;5051642;28;20029;-79
2022/10/10 05:06:48;;;;;;;1.40;0.30;;;15.00;89.20;;;;;;5036455;28;20026;-82
2022/10/10 05:09:32;;;;;;;0.50;0.30;;;15.00;88.60;;;;;;5051762;28;20029;-79
2022/10/10 05:12:07;;;;;;;2.17;0.50;;;14.90;88.90;;;;;;5018634;28;20060;-80
2022/10/10 05:14:42;;;;;;;2.28;1.60;;;15.00;88.40;;;;;;5036234;28;20083;-80
2022/10/10 05:17:08;;;;;;;0.13;0.13;;;15.10;87.90;;;;;;5018797;28;20096;-82
2022/10/10 05:19:52;;;;;;;0.28;0.20;;;15.10;87.80;;;;;;5035030;28;20096;-81
2022/10/10 05:22:27;;;;;;;0.38;0.35;;;15.10;87.50;;;;;;5034973;28;20033;-82
2022/10/10 05:25:03;;;;;;;0.33;0.20;;;15.10;87.00;;;;;;5018524;28;20028;-80
2022/10/10 05:27:29;;;;;;;0.30;0.25;;;15.10;87.70;;;;;;5018579;28;20017;-80
2022/10/10 05:30:37;;;;;;;0.52;0.38;;;15.00;88.60;;;;;;5035097;28;20083;-80
2022/10/10 05:33:12;;;;;;;1.23;0.68;;;14.90;89.20;;;;;;5034809;28;20018;-80
2022/10/10 05:35:47;;;;;;;0.00;0.00;;;14.80;89.30;;;;;;5051568;28;20017;-79
2022/10/10 05:38:22;;;;;;;0.35;0.28;;;14.70;88.90;;;;;;5035850;28;20017;-79
2022/10/10 05:41:48;;;;;;;0.20;0.13;;;14.70;89.30;;;;;;5050934;28;20041;-80
2022/10/10 05:45:13;;;;;;;5.38;1.55;;;14.70;88.90;;;;;;5035669;28;20117;-80
2022/10/10 05:47:39;;;;;;;0.93;0.75;;;14.80;88.60;;;;;;5034832;28;20112;-80
2022/10/10 05:50:39;;;;;;;1.13;0.43;;;14.70;89.40;;;;;;5034780;28;20377;-79
2022/10/10 05:53:14;;;;;;;0.65;0.45;;;14.60;89.90;;;;;;5031876;28;20034;-80
2022/10/10 05:55:49;;;;;;;0.15;0.10;;;14.40;91.40;;;;;;5051426;28;20038;-81
2022/10/10 05:58:34;;;;;;;0.70;0.70;;;14.30;92.60;;;;;;5039479;28;20068;-82
2022/10/10 06:01:12;;;;;;;0.35;0.25;;;14.10;93.40;;;;;;5038346;28;20279;-82
2022/10/10 06:03:51;;;;;;;0.95;0.75;;;14.00;94.30;;;;;;5054768;28;20402;-81
2022/10/10 06:06:18;;;;;;;0.52;0.47;;;13.90;95.10;;;;;;5054675;28;20022;-81
2022/10/10 06:08:56;;;;;;;0.43;0.43;;;13.80;95.80;;;;;;5021741;28;20017;-82
2022/10/10 06:11:30;;;;;;;0.75;0.60;;;13.80;96.70;;;;;;5039061;28;20314;-81
2022/10/10 06:14:05;;;;;;;0.15;0.15;;;13.90;96.70;;;;;;5039040;28;20033;-81
2022/10/10 06:16:31;;;;;;;0.20;0.20;;;13.90;96.80;;;;;;5021408;28;20052;-81
2022/10/10 06:19:16;;;;;;;2.63;0.68;;;14.00;97.40;;;;;;5037885;28;20406;-80
2022/10/10 06:21:50;;;;;;;0.40;0.22;;;14.10;97.30;;;;;;5038710;28;20029;-80
2022/10/10 06:24:25;;;;;;;0.38;0.38;;;14.20;96.20;;;;;;5037822;28;20025;-80
2022/10/10 06:26:51;;;;;;;0.30;0.30;;;14.30;95.10;;;;;;5021375;28;20020;-79
2022/10/10 06:29:35;;;;;;;2.17;0.73;;;14.40;92.80;;;;;;5021338;28;20029;-80
2022/10/10 06:32:10;;;;;;;0.75;0.57;;;14.50;92.30;;;;;;5054297;28;20026;-79
2022/10/10 06:34:45;;;;;;;0.43;0.17;;;14.60;91.10;;;;;;5054169;28;20025;-80
2022/10/10 06:37:11;;;;;;;0.68;0.45;;;14.70;90.80;;;;;;5037738;28;20079;-80
2022/10/10 06:39:56;;;;;;;0.68;0.43;;;14.70;89.50;;;;;;5021040;28;20414;-80
2022/10/10 06:42:31;;;;;;;0.30;0.20;;;14.90;89.40;;;;;;5038240;28;20049;-80
2022/10/10 06:48:33;;;;;;;1.45;0.85;;;15.00;90.60;;;;;;5038730;28;20043;-80
2022/10/10 06:51:13;;;;;;;0.22;0.20;;;15.10;89.00;;;;;;5020859;28;20033;-80
2022/10/10 06:53:48;;;;;;;0.77;0.40;;;15.10;88.00;;;;;;5038333;28;20305;-80
2022/10/10 06:56:19;;;;;;;0.25;0.10;;;15.20;88.50;;;;;;5037215;28;20087;-79
2022/10/10 06:58:55;;;;;;;0.40;0.30;;;15.20;88.30;;;;;;5038290;28;20149;-80
2022/10/10 07:01:30;;;;;;;0.10;0.10;;;15.30;87.80;;;;;;5038075;28;20104;-80
2022/10/10 07:04:06;;;;;;;0.80;0.65;;;15.40;86.20;;;;;;5070178;28;20068;-79
2022/10/10 07:06:32;;;;;;;0.65;0.63;;;15.40;86.90;;;;;;5036776;28;20048;-81
2022/10/10 07:09:13;;;;;;;0.30;0.22;;;15.50;87.80;;;;;;5053503;28;20018;-80
2022/10/10 07:11:48;;;;;;;0.28;0.22;;;15.50;87.40;;;;;;5036871;28;20365;-81
2022/10/10 07:14:23;;;;;;;0.67;0.40;;;15.50;87.60;;;;;;5036807;28;20124;-81
2022/10/10 07:16:49;;;;;;;0.57;0.33;;;15.50;87.80;;;;;;5052375;28;20033;-80
2022/10/10 07:22:46;;;;;;;0.73;0.63;;;15.60;87.20;;;;;;5037740;28;20087;-80
2022/10/10 07:28:44;;;;;;;0.40;0.30;;;15.90;88.00;;;;;;5037702;28;20655;-80
2022/10/10 07:31:19;;;;;;;0.45;0.45;;;16.00;85.70;;;;;;5052981;28;20025;-80
2022/10/10 07:33:54;;;;;;;1.90;0.83;;;16.10;85.90;;;;;;5052910;28;20025;-83
2022/10/10 07:36:19;;;;;;;1.17;0.82;;;16.20;86.40;;;;;;5053011;28;20315;-80
2022/10/10 07:38:54;;;;;;;0.38;0.22;;;16.30;85.80;;;;;;5037440;28;20029;-80
2022/10/10 07:41:29;;;;;;;2.13;0.43;;;16.40;86.80;;;;;;5052633;28;20076;-78
2022/10/10 07:44:05;;;;;;;0.75;0.75;;;16.50;86.60;;;;;;5036562;28;20029;-79
2022/10/10 07:46:32;;;;;;;0.10;0.10;;;16.70;88.10;;;;;;5019877;28;20017;-80
2022/10/10 07:49:13;;;;;;;0.22;0.22;;;16.90;88.00;;;;;;5036218;28;20021;-80
2022/10/10 07:51:48;;;;;;;0.25;0.22;;;17.00;86.20;;;;;;5037465;28;20025;-79
2022/10/10 07:54:23;;;;;;;0.75;0.65;;;17.10;85.80;;;;;;5036436;28;20029;-80
2022/10/10 07:56:48;;;;;;;0.83;0.83;;;17.10;84.20;;;;;;5036038;28;20436;-80
2022/10/10 07:59:32;;;;;;;0.77;0.38;;;17.10;85.40;;;;;;5036249;28;20025;-78
2022/10/10 08:02:08;;;;;;;0.55;0.35;;;17.00;84.70;;;;;;5035969;28;20378;-79
2022/10/10 08:04:44;;;;;;;0.52;0.25;;;16.90;84.80;;;;;;5032953;28;20279;-82
2022/10/10 08:07:09;;;;;;;1.85;1.10;;;16.90;85.30;;;;;;5019711;28;20029;-79
2022/10/10 08:09:53;;;;;;;0.85;0.65;;;16.90;85.10;;;;;;5052537;28;20079;-80
2022/10/10 08:12:28;;;;;;;0.75;0.60;;;16.90;85.00;;;;;;5036006;28;20030;-81
2022/10/10 08:15:05;;;;;;;0.67;0.57;;;16.90;84.40;;;;;;5035963;28;20083;-81
2022/10/10 08:17:31;;;;;;;0.25;0.22;;;17.00;86.00;;;;;;5019382;28;20072;-81
2022/10/10 08:20:12;;;;;;;0.60;0.47;;;17.20;83.90;;;;;;5018295;28;20029;-81
2022/10/10 08:22:47;;;;;;;0.22;0.22;;;17.30;87.50;;;;;;5035561;28;20133;-81
2022/10/10 08:25:22;;;;;;;0.30;0.23;;;17.40;88.50;;;;;;5052164;28;20402;-82
2022/10/10 08:27:48;;;;;;;2.13;1.38;;;17.40;85.80;;;;;;5035531;28;20349;-81
2022/10/10 08:30:33;;;;;;;0.10;0.10;;;17.60;87.60;;;;;;5018954;28;20029;-81
2022/10/10 08:33:08;;;;;;;0.85;0.73;;;17.70;88.10;;;;;;5036562;28;20030;-81
2022/10/10 08:35:46;;;;;;;1.23;0.28;;;17.90;86.50;;;;;;5035418;28;20026;-81
2022/10/10 08:38:21;;;;;;;0.70;0.70;;;18.10;84.70;;;;;;5036663;28;20030;-81
2022/10/10 08:41:47;;;;;;;0.50;0.35;;;18.10;85.30;;;;;;5051565;28;20041;-81
2022/10/10 08:45:12;;;;;;;0.63;0.60;;;18.30;84.90;;;;;;5036307;28;20022;-81
2022/10/10 08:47:47;;;;;;;1.75;0.45;;;18.40;85.40;;;;;;5035262;28;20037;-80
2022/10/10 08:50:58;;;;;;;1.08;0.73;;;18.60;83.10;;;;;;5018875;28;20037;-81
2022/10/10 08:53:52;;;;;;;0.80;0.52;;;18.90;85.80;;;;;;5014807;28;20065;-80
2022/10/10 08:59:49;;;;;;;0.43;0.30;;;18.90;80.00;;;;;;5014847;28;20096;-81
2022/10/10 09:02:58;;;;;;;0.32;0.30;;;19.00;81.10;;;;;;4998115;28;20034;-81
2022/10/10 09:06:01;;;;;;;1.35;0.93;;;19.10;80.70;;;;;;4940027;29;20031;-81
2022/10/10 09:09:03;;;;;;;0.75;0.50;;;19.30;81.20;;;;;;4956085;28;20039;-81
2022/10/10 09:11:53;;;;;;;1.70;0.38;;;19.50;80.20;;;;;;4956193;29;20159;-80
2022/10/10 09:14:55;;;;;;;0.55;0.35;;;19.80;81.30;;;;;;4940154;29;20034;-80
2022/10/10 09:17:39;;;;;;;0.70;0.47;;;19.80;79.30;;;;;;4998128;28;20027;-79
2022/10/10 09:20:38;;;;;;;0.52;0.40;;;19.80;78.10;;;;;;4998108;28;20128;-80
2022/10/10 09:23:43;;;;;;;2.78;1.00;;;19.80;77.20;;;;;;5014578;28;20038;-82
2022/10/10 09:26:12;;;;;;;0.28;0.28;;;19.70;79.10;;;;;;4997919;28;20026;-81
2022/10/10 09:29:33;;;;;;;0.40;0.30;;;19.70;77.70;;;;;;4982075;28;20034;-82
2022/10/10 09:32:21;;;;;;;0.65;0.47;;;19.70;77.90;;;;;;5018436;28;20045;-81
2022/10/10 09:38:37;;;;;;;0.20;0.17;;;19.80;78.80;;;;;;5024566;28;20033;-80
2022/10/10 09:44:42;;;;;;;0.98;0.70;;;20.10;79.20;;;;;;5039878;28;20036;-81
2022/10/10 09:47:12;;;;;;;0.30;0.20;;;20.50;77.80;;;;;;5021941;28;20298;-79
2022/10/10 09:49:47;;;;;;;0.30;0.20;;;20.50;78.00;;;;;;5021950;28;20057;-79
2022/10/10 09:52:32;;;;;;;0.50;0.28;;;20.40;75.00;;;;;;5038502;28;20103;-80
2022/10/10 09:55:36;;;;;;;0.80;0.65;;;20.40;75.20;;;;;;5039540;28;20013;-78
2022/10/10 09:58:33;;;;;;;0.20;0.20;;;20.30;77.10;;;;;;5036119;28;20040;-79
2022/10/10 10:01:24;;;;;;;0.70;0.68;;;20.50;79.20;;;;;;5039542;28;20037;-81
2022/10/10 10:04:30;;;;;;;3.38;0.93;;;20.50;75.80;;;;;;5039288;28;20020;-80
2022/10/10 10:07:04;;;;;;;0.80;0.43;;;20.30;76.00;;;;;;5021723;28;20092;-79
2022/10/10 10:09:39;;;;;;;1.73;0.50;;;20.40;75.60;;;;;;5021619;28;20033;-79
2022/10/10 10:12:20;;;;;;;0.82;0.40;;;20.30;75.30;;;;;;5038247;28;20033;-79
2022/10/10 10:19:06;;;;;;;0.38;0.20;;;19.80;77.00;;;;;;5039598;28;20033;-78
2022/10/10 10:22:30;;;;;;;1.17;0.77;;;19.50;77.20;;;;;;4997532;28;20080;-79
2022/10/10 10:28:40;;;;;;;0.25;0.22;;;19.40;79.30;;;;;;4997803;28;20069;-79
2022/10/10 10:31:34;;;;;;;2.35;0.98;;;19.60;81.60;;;;;;4994925;28;20121;-79
2022/10/10 10:38:03;;;;;;;0.68;0.47;;;20.00;81.00;;;;;;5000032;28;20425;-80
2022/10/10 10:40:46;;;;;;;1.23;0.55;;;20.30;78.50;;;;;;5017181;28;20342;-80
2022/10/10 10:43:49;;;;;;;0.95;0.68;;;20.50;80.00;;;;;;5016119;28;20042;-79
2022/10/10 10:46:45;;;;;;;0.60;0.50;;;20.40;78.90;;;;;;5000311;28;20033;-79
2022/10/10 10:49:38;;;;;;;0.55;0.55;;;20.30;77.80;;;;;;5000368;28;20121;-80
2022/10/10 10:52:40;;;;;;;1.65;0.60;;;20.30;78.90;;;;;;5016851;28;20034;-80
2022/10/10 10:58:52;;;;;;;0.73;0.70;;;20.40;76.50;;;;;;5017102;28;20028;-78
2022/10/10 11:01:43;;;;;;;0.35;0.22;;;20.10;75.00;;;;;;5016619;28;20034;-79
2022/10/10 11:07:45;;;;;;;1.25;0.50;;;19.80;81.00;;;;;;5038582;28;20032;-79
2022/10/10 11:10:28;;;;;;;0.35;0.30;;;19.80;77.60;;;;;;5035848;28;20279;-80
2022/10/10 11:13:45;;;;;;;1.25;1.13;;;19.90;80.00;;;;;;5037985;28;20025;-79
2022/10/10 11:16:49;;;;;;;0.98;0.38;;;19.90;80.40;;;;;;5020114;28;20017;-79
2022/10/10 11:19:55;;;;;;;0.55;0.45;;;20.10;79.00;;;;;;5032828;28;20037;-77
2022/10/10 11:22:47;;;;;;;0.70;0.50;;;20.50;78.00;;;;;;5033436;28;20124;-81
2022/10/10 11:25:57;;;;;;;1.85;0.80;;;21.10;75.00;;;;;;5019968;28;20260;-81
2022/10/10 11:28:52;;;;;;;1.40;0.82;;;21.50;75.50;;;;;;4996425;28;20030;-79
2022/10/10 11:31:49;;;;;;;4.57;0.80;;;21.40;72.50;;;;;;4996370;28;20351;-81
2022/10/10 11:34:26;;;;;;;0.60;0.50;;;21.50;73.10;;;;;;5036458;28;20096;-81
2022/10/10 11:36:56;;;;;;;0.63;0.43;;;21.70;76.20;;;;;;5053140;28;20026;-80
2022/10/10 11:39:44;;;;;;;3.45;1.27;;;21.80;75.30;;;;;;5020139;28;20052;-80
2022/10/10 11:43:10;;;;;;;0.82;0.60;;;21.80;74.10;;;;;;5019384;28;20107;-80
2022/10/10 11:49:58;;;;;;;0.68;0.40;;;22.30;73.70;;;;;;5037748;28;20141;-80
2022/10/10 11:53:21;;;;;;;0.80;0.60;;;22.40;76.50;;;;;;5015560;28;20119;-80
2022/10/10 11:56:01;;;;;;;1.20;0.68;;;21.90;74.40;;;;;;4976526;28;20035;-80
2022/10/10 11:58:59;;;;;;;0.80;0.60;;;21.80;76.70;;;;;;4960251;28;20041;-80
2022/10/10 12:01:40;;;;;;;1.00;0.50;;;21.80;75.50;;;;;;4960109;28;20046;-80
2022/10/10 12:04:07;;;;;;;0.88;0.60;;;21.60;73.20;;;;;;4944152;28;20077;-80
2022/10/10 12:06:51;;;;;;;0.80;0.50;;;21.60;74.20;;;;;;4960274;28;20371;-80
2022/10/10 12:13:20;;;;;;;0.40;0.32;;;21.30;76.00;;;;;;4938198;29;20321;-79
2022/10/10 12:15:52;;;;;;;0.65;0.45;;;21.10;78.60;;;;;;4937504;29;20194;-80
2022/10/10 12:18:44;;;;;;;0.57;0.57;;;21.00;77.60;;;;;;4921780;29;20036;-80
2022/10/10 12:21:24;;;;;;;0.98;0.40;;;20.90;77.40;;;;;;4921718;29;20075;-80
2022/10/10 12:27:49;;;;;;;0.77;0.50;;;21.00;75.00;;;;;;4938004;29;20034;-81
2022/10/10 12:30:25;;;;;;;0.70;0.50;;;21.10;74.80;;;;;;4928888;28;20054;-79
2022/10/10 12:33:00;;;;;;;0.88;0.65;;;21.10;75.90;;;;;;4959803;28;20305;-81
2022/10/10 12:39:00;;;;;;;0.95;0.60;;;21.20;76.30;;;;;;4976064;28;20026;-80
2022/10/10 12:45:36;;;;;;;1.20;0.90;;;21.30;74.50;;;;;;5036618;28;20454;-80
2022/10/10 12:48:25;;;;;;;0.38;0.25;;;21.30;76.10;;;;;;5018695;28;20032;-80
2022/10/10 12:51:04;;;;;;;0.73;0.60;;;21.40;75.40;;;;;;5019115;28;20037;-80
2022/10/10 12:53:40;;;;;;;0.90;0.70;;;21.40;75.90;;;;;;5048111;28;20032;-80
2022/10/10 12:56:06;;;;;;;0.82;0.52;;;21.30;74.60;;;;;;5057287;28;20313;-81
2022/10/10 12:58:48;;;;;;;0.70;0.60;;;21.10;74.10;;;;;;5072057;28;20317;-80
2022/10/10 13:01:35;;;;;;;0.88;0.73;;;21.00;75.30;;;;;;5056176;28;20290;-80
2022/10/10 13:04:51;;;;;;;0.68;0.65;;;21.10;82.00;;;;;;5038589;28;20428;-80
2022/10/10 13:07:19;;;;;;;1.48;0.82;;;21.10;74.40;;;;;;5060333;28;20024;-80
2022/10/10 13:10:06;;;;;;;0.70;0.60;;;21.10;76.80;;;;;;5060466;28;20021;-80
2022/10/10 13:12:41;;;;;;;0.85;0.50;;;20.90;75.30;;;;;;5059158;28;20345;-80
2022/10/10 13:19:06;;;;;;;1.60;0.80;;;20.20;75.40;;;;;;5060415;28;20078;-80
2022/10/10 13:21:41;;;;;;;0.80;0.70;;;19.90;78.40;;;;;;5060076;28;20070;-80
2022/10/10 13:24:43;;;;;;;0.30;0.20;;;19.70;81.20;;;;;;5042236;28;20413;-80
2022/10/10 13:27:35;;;;;;;1.10;0.60;;;19.40;78.70;;;;;;5042264;28;20021;-80
2022/10/10 13:30:23;;;;;;;0.93;0.73;;;19.10;81.60;;;;;;5055496;28;20120;-80
2022/10/10 13:32:57;;;;;;;0.93;0.70;;;19.00;80.40;;;;;;5059814;28;20097;-80
2022/10/10 13:35:32;;;;;;;0.98;0.70;;;18.90;83.70;;;;;;5042070;28;20115;-81
2022/10/10 13:37:59;;;;;;;0.40;0.40;;;18.90;81.80;;;;;;5059784;28;20032;-81
2022/10/10 13:40:35;;;;;;;0.68;0.45;;;18.80;81.50;;;;;;5041990;28;20440;-80
2022/10/10 13:46:35;;;;;;;1.73;0.95;;;18.80;84.60;;;;;;5059902;28;20043;-80
2022/10/10 13:50:00;;;;;;;0.98;0.50;;;18.80;85.10;;;;;;5058512;28;20033;-81
2022/10/10 13:52:36;;;;;;;1.10;0.55;;;18.80;83.50;;;;;;5059307;28;20390;-80
2022/10/10 13:58:45;;;;;;;1.00;0.60;;;18.80;84.00;;;;;;5059713;28;20020;-81
2022/10/10 14:01:44;;;;;;;1.23;0.60;;;18.90;86.60;;;;;;5041680;28;20040;-81
2022/10/10 14:04:37;;;;;;;0.60;0.40;;;19.00;86.60;;;;;;5074771;28;20028;-80
2022/10/10 14:07:09;;;;;;;0.82;0.77;;;19.00;86.00;;;;;;5041482;28;20401;-80
2022/10/10 14:10:15;;;;;;;1.10;0.57;;;19.00;79.50;;;;;;5058020;28;20471;-80
2022/10/10 14:12:52;;;;;;;1.00;0.88;;;19.00;80.00;;;;;;5057958;28;20032;-81
2022/10/10 14:15:48;;;;;;;1.30;0.68;;;19.00;83.00;;;;;;5058997;28;20108;-79
2022/10/10 14:18:25;;;;;;;;;;;19.00;83.30;;;;;;5058636;28;20033;-80
2022/10/10 14:21:00;;;;;;;0.88;0.77;;;19.00;82.60;;;;;;5058814;28;19950;-80
2022/10/10 14:26:48;;;;;;;0.90;0.52;;;19.10;83.10;;;;;;5059267;28;20079;-80
2022/10/10 14:29:23;;;;;;;0.47;0.45;;;19.10;81.60;;;;;;5057901;28;20376;-80
2022/10/10 14:31:58;;;;;;;1.98;0.90;;;19.10;85.30;;;;;;5074490;28;20029;-80
2022/10/10 14:37:46;;;;;;;0.52;0.50;;;19.20;84.30;;;;;;5059126;28;20082;-80
2022/10/10 14:40:29;;;;;;;0.70;0.52;;;19.20;83.10;;;;;;5057530;28;20355;-80
2022/10/10 14:43:04;;;;;;;1.70;1.58;;;19.20;82.80;;;;;;5023868;28;20481;-80
2022/10/10 14:48:52;;;;;;;0.95;0.85;;;19.20;85.00;;;;;;5018718;28;20349;-81
2022/10/10 14:51:37;;;;;;;1.25;0.80;;;19.10;81.60;;;;;;5017462;28;20026;-80
2022/10/10 14:54:14;;;;;;;1.30;0.57;;;19.00;82.60;;;;;;5033302;28;20367;-80
2022/10/10 14:56:46;;;;;;;1.65;1.02;;;19.00;82.70;;;;;;5001148;28;20034;-80
2022/10/10 14:59:24;;;;;;;0.93;0.63;;;18.90;82.30;;;;;;5018512;28;20156;-81
2022/10/10 15:01:59;;;;;;;0.80;0.60;;;18.90;82.60;;;;;;5033815;28;20417;-80
2022/10/10 15:04:33;;;;;;;0.80;0.70;;;18.80;84.50;;;;;;5018449;28;20018;-80
2022/10/10 15:06:59;;;;;;;0.77;0.63;;;18.80;85.90;;;;;;5018222;28;20253;-81
2022/10/10 15:09:41;;;;;;;1.00;0.90;;;18.70;84.60;;;;;;5018150;28;20079;-81
2022/10/10 15:12:16;;;;;;;0.93;0.55;;;18.70;85.30;;;;;;5017292;28;20079;-80
2022/10/10 15:18:13;;;;;;;0.38;0.38;;;18.40;86.10;;;;;;5018517;28;20029;-80
2022/10/10 15:20:52;;;;;;;1.70;1.08;;;18.30;89.00;;;;;;5017001;28;20034;-80
2022/10/10 15:23:27;;;;;;;2.75;0.93;;;18.30;87.00;;;;;;5016873;28;20080;-79
2022/10/10 15:29:27;;;;;;;1.42;1.20;;;18.20;86.70;;;;;;5017960;28;20087;-80
2022/10/10 15:32:02;;;;;;;0.43;0.30;;;18.20;88.40;;;;;;5000505;28;20124;-80
2022/10/10 15:34:37;;;;;;;1.17;0.95;;;18.10;89.60;;;;;;5016964;28;20362;-79
2022/10/10 15:37:03;;;;;;;0.90;0.75;;;18.00;90.10;;;;;;5018209;28;20356;-79
2022/10/10 15:39:47;;;;;;;0.55;0.30;;;18.00;89.90;;;;;;5016723;28;20124;-80
2022/10/10 15:42:22;;;;;;;0.65;0.40;;;17.90;89.40;;;;;;5017712;28;20084;-80
2022/10/10 15:44:57;;;;;;;1.00;0.75;;;17.80;89.20;;;;;;5019728;28;20149;-80
2022/10/10 15:47:22;;;;;;;1.20;0.73;;;17.70;90.20;;;;;;5036498;28;20075;-79
2022/10/10 15:50:09;;;;;;;1.25;0.88;;;17.60;91.70;;;;;;5036224;28;20345;-80
2022/10/10 15:52:43;;;;;;;;;;;17.50;92.80;;;;;;5036742;28;20025;-80
2022/10/10 15:58:31;;;;;;;0.68;0.60;;;17.10;93.00;;;;;;5037614;28;20076;-80
2022/10/10 16:01:22;;;;;;;0.55;0.47;;;16.90;93.40;;;;;;5052597;28;20406;-80
2022/10/10 16:03:57;;;;;;;0.65;0.65;;;16.80;94.30;;;;;;5037187;28;20477;-80
2022/10/10 16:07:19;;;;;;;0.80;0.50;;;16.70;94.00;;;;;;5052733;28;20108;-80
2022/10/10 16:09:54;;;;;;;1.00;0.68;;;16.60;94.00;;;;;;5035942;28;20022;-80
2022/10/10 16:12:29;;;;;;;0.50;0.32;;;16.40;94.40;;;;;;5035959;28;20025;-81
2022/10/10 16:18:35;;;;;;;0.70;0.50;;;16.30;95.30;;;;;;5031395;28;20028;-80
2022/10/10 16:21:20;;;;;;;1.30;0.77;;;16.20;95.20;;;;;;5015920;28;20388;-80
2022/10/10 16:23:56;;;;;;;0.95;0.50;;;16.20;95.10;;;;;;5034953;28;20017;-80
2022/10/10 16:27:14;;;;;;;0.77;0.40;;;16.20;94.90;;;;;;5035759;28;20040;-81
2022/10/10 16:29:49;;;;;;;0.45;0.30;;;16.20;95.10;;;;;;5036627;28;20017;-81
2022/10/10 16:32:24;;;;;;;0.77;0.77;;;16.20;94.60;;;;;;5052290;28;20029;-80
2022/10/10 16:38:12;;;;;;;0.90;0.32;;;16.10;94.40;;;;;;5036998;28;20024;-80
2022/10/10 16:41:01;;;;;;;0.85;0.70;;;16.00;95.10;;;;;;5034795;28;20381;-80
2022/10/10 16:48:01;;;;;;;0.85;0.82;;;15.80;95.10;;;;;;5036758;28;20317;-81
2022/10/10 16:51:27;;;;;;;0.82;0.65;;;15.70;95.00;;;;;;5036485;28;20475;-81
2022/10/10 16:57:28;;;;;;;1.02;0.57;;;15.50;95.50;;;;;;5036677;28;20306;-80
2022/10/10 17:00:04;;;;;;;0.30;0.30;;;15.50;95.50;;;;;;5036374;28;20033;-80
2022/10/10 17:02:41;;;;;;;0.60;0.60;;;15.50;95.20;;;;;;5018775;28;20076;-80